Time;durP1;ratioP1;P1;durP2;ratioP2;P2;SDS_P1;SDS_P2;PMS_P1;PMS_P2;Temp;Humidity;BMP_temperature;BMP_pressure;BME280_temperature;BME280_humidity;BME280_pressure;Samples;Min_cycle;Max_cycle;Signal;HPM_P1;HPM_P2
2023/08/04 00:00:21;;;;;;;;;;;19.70;72.70;;;;;;5095117;28;19987;-65
2023/08/04 00:02:47;;;;;;;;;;;19.70;72.70;;;;;;5094755;28;20382;-65
2023/08/04 00:05:13;;;;;;;;;;;19.70;72.70;;;;;;5113023;28;20059;-71
2023/08/04 00:07:39;;;;;;;;;;;19.70;72.70;;;;;;5094896;28;20382;-65
2023/08/04 00:10:05;;;;;;;;;;;19.70;72.70;;;;;;5094701;28;19924;-66
2023/08/04 00:12:30;;;;;;;;;;;19.70;72.70;;;;;;5113077;28;20347;-65
2023/08/04 00:14:56;;;;;;;;;;;19.70;72.70;;;;;;5094633;28;19959;-65
2023/08/04 00:17:21;;;;;;;;;;;19.70;72.70;;;;;;5094347;28;19931;-66
2023/08/04 00:19:47;;;;;;;;;;;19.70;72.70;;;;;;5128622;28;19926;-65
2023/08/04 00:22:12;;;;;;;;;;;19.70;72.70;;;;;;5128887;28;19923;-65
2023/08/04 00:24:38;;;;;;;;;;;19.70;72.70;;;;;;5094509;28;20429;-65
2023/08/04 00:27:03;;;;;;;;;;;19.70;72.70;;;;;;5113037;28;19927;-66
2023/08/04 00:29:29;;;;;;;;;;;19.70;72.70;;;;;;5094775;28;20014;-65
2023/08/04 00:31:55;;;;;;;;;;;19.70;72.70;;;;;;5094699;28;19920;-65
2023/08/04 00:34:20;;;;;;;;;;;19.70;72.70;;;;;;5094482;28;19927;-65
2023/08/04 00:36:47;;;;;;;;;;;19.70;72.70;;;;;;5112590;28;19920;-65
2023/08/04 00:39:14;;;;;;;;;;;19.70;72.60;;;;;;5094417;28;20382;-65
2023/08/04 00:41:40;;;;;;;;;;;19.70;72.60;;;;;;5094227;28;19919;-65
2023/08/04 00:44:05;;;;;;;;;;;19.70;72.70;;;;;;5112602;28;19927;-71
2023/08/04 00:46:31;;;;;;;;;;;19.70;72.70;;;;;;5094698;28;20251;-65
2023/08/04 00:48:57;;;;;;;;;;;19.70;72.60;;;;;;5128328;28;19920;-71
2023/08/04 00:51:23;;;;;;;;;;;19.70;72.70;;;;;;5094701;28;19976;-66
2023/08/04 00:53:48;;;;;;;;;;;19.70;72.70;;;;;;5094294;28;20494;-65
2023/08/04 00:56:14;;;;;;;;;;;19.60;72.60;;;;;;5094548;28;19919;-65
2023/08/04 00:58:40;;;;;;;;;;;19.70;72.60;;;;;;5112375;28;19924;-65
2023/08/04 01:01:05;;;;;;;;;;;19.70;72.70;;;;;;5097704;28;20400;-65
2023/08/04 01:03:31;;;;;;;;;;;19.70;72.60;;;;;;5097556;28;19920;-65
2023/08/04 01:06:10;;;;;;;;;;;19.60;72.60;;;;;;5098228;28;19986;-65
2023/08/04 01:08:35;;;;;;;;;;;19.60;72.60;;;;;;5098304;28;19924;-65
2023/08/04 01:11:06;;;;;;;;;;;19.60;72.60;;;;;;5116232;28;20346;-65
2023/08/04 01:13:33;;;;;;;;;;;19.60;72.60;;;;;;5097957;28;19973;-65
2023/08/04 01:15:59;;;;;;;;;;;19.60;72.60;;;;;;5098164;28;19927;-65
2023/08/04 01:18:24;;;;;;;;;;;19.60;72.60;;;;;;5115864;28;19923;-65
2023/08/04 01:20:50;;;;;;;;;;;19.60;72.50;;;;;;5115990;28;19920;-65
2023/08/04 01:23:18;;;;;;;;;;;19.60;72.60;;;;;;5116105;28;19920;-65
2023/08/04 01:25:44;;;;;;;;;;;19.60;72.60;;;;;;5114573;28;19919;-71
2023/08/04 01:28:11;;;;;;;;;;;19.60;72.60;;;;;;5115150;28;19919;-65
2023/08/04 01:30:36;;;;;;;;;;;19.60;72.50;;;;;;5114862;28;19920;-65
2023/08/04 01:33:02;;;;;;;;;;;19.60;72.60;;;;;;5114900;28;20407;-65
2023/08/04 01:35:29;;;;;;;;;;;19.60;72.60;;;;;;5114498;28;19919;-65
2023/08/04 01:37:54;;;;;;;;;;;19.60;72.60;;;;;;5114612;28;20346;-65
2023/08/04 01:40:20;;;;;;;;;;;19.60;72.60;;;;;;5115558;28;19958;-65
2023/08/04 01:42:45;;;;;;;;;;;19.60;72.60;;;;;;5115707;28;19927;-65
2023/08/04 01:45:11;;;;;;;;;;;19.60;72.60;;;;;;5114603;28;20277;-65
2023/08/04 01:47:38;;;;;;;;;;;19.60;72.60;;;;;;5114627;28;19982;-65
2023/08/04 01:50:04;;;;;;;;;;;19.60;72.70;;;;;;5114536;28;19920;-65
2023/08/04 01:52:29;;;;;;;;;;;19.60;72.60;;;;;;5114253;28;20383;-65
2023/08/04 01:54:55;;;;;;;;;;;19.60;72.60;;;;;;5115375;28;20383;-65
2023/08/04 01:57:20;;;;;;;;;;;19.60;72.60;;;;;;5114244;28;19927;-65
2023/08/04 01:59:46;;;;;;;;;;;19.60;72.60;;;;;;5114758;27;19927;-65
2023/08/04 02:02:11;;;;;;;;;;;19.50;72.60;;;;;;5113919;28;19978;-65
2023/08/04 02:04:37;;;;;;;;;;;19.60;72.60;;;;;;5115372;28;19919;-65
2023/08/04 02:07:02;;;;;;;;;;;19.50;72.60;;;;;;5114199;28;19931;-66
2023/08/04 02:09:28;;;;;;;;;;;19.50;72.60;;;;;;5115163;28;19926;-65
2023/08/04 02:11:55;;;;;;;;;;;19.50;72.60;;;;;;5113712;28;20267;-65
2023/08/04 02:14:21;;;;;;;;;;;19.50;72.60;;;;;;5115330;28;20286;-65
2023/08/04 02:16:46;;;;;;;;;;;19.50;72.60;;;;;;5113676;28;19923;-65
2023/08/04 02:19:12;;;;;;;;;;;19.50;72.60;;;;;;5115011;28;19935;-65
2023/08/04 02:21:37;;;;;;;;;;;19.50;72.70;;;;;;5114806;28;20386;-65
2023/08/04 02:24:03;;;;;;;;;;;19.50;72.70;;;;;;5113975;28;20286;-66
2023/08/04 02:26:29;;;;;;;;;;;19.50;72.90;;;;;;5113763;28;20370;-65
2023/08/04 02:28:55;;;;;;;;;;;19.50;72.70;;;;;;5113413;28;20022;-65
2023/08/04 02:31:22;;;;;;;;;;;19.50;72.70;;;;;;5148200;27;19970;-66
2023/08/04 02:33:47;;;;;;;;;;;19.50;72.70;;;;;;5113767;28;19967;-65
2023/08/04 02:36:13;;;;;;;;;;;19.50;72.80;;;;;;5114637;28;20352;-65
2023/08/04 02:38:39;;;;;;;;;;;19.50;72.70;;;;;;5113292;28;19928;-65
2023/08/04 02:41:05;;;;;;;;;;;19.50;72.70;;;;;;5114510;28;20023;-65
2023/08/04 02:43:31;;;;;;;;;;;19.50;72.70;;;;;;5113502;28;19920;-66
2023/08/04 02:45:56;;;;;;;;;;;19.50;72.70;;;;;;5113166;28;19919;-65
2023/08/04 02:48:22;;;;;;;;;;;19.50;72.70;;;;;;5147523;27;19923;-65
2023/08/04 02:50:56;;;;;;;;;;;19.50;72.80;;;;;;5112354;28;19920;-65
2023/08/04 02:53:22;;;;;;;;;;;19.40;72.70;;;;;;5114101;28;19923;-65
2023/08/04 02:55:47;;;;;;;;;;;19.50;72.80;;;;;;5113218;28;20383;-65
2023/08/04 02:58:13;;;;;;;;;;;19.50;72.80;;;;;;5112697;28;19931;-71
2023/08/04 03:00:38;;;;;;;;;;;19.40;72.80;;;;;;5113200;28;19959;-65
2023/08/04 03:03:03;;;;;;;;;;;19.50;72.80;;;;;;5112694;28;19943;-65
2023/08/04 03:05:33;;;;;;;;;;;19.50;72.80;;;;;;5113129;28;19920;-65
2023/08/04 03:07:59;;;;;;;;;;;19.50;72.90;;;;;;5113028;28;20002;-65
2023/08/04 03:10:24;;;;;;;;;;;19.50;72.90;;;;;;5112996;28;20434;-66
2023/08/04 03:12:50;;;;;;;;;;;19.40;72.80;;;;;;5112854;28;19920;-66
2023/08/04 03:15:15;;;;;;;;;;;19.40;72.80;;;;;;5112614;28;19919;-65
2023/08/04 03:17:41;;;;;;;;;;;19.40;72.80;;;;;;5112061;28;19965;-65
2023/08/04 03:20:07;;;;;;;;;;;19.40;72.80;;;;;;5112690;28;19919;-65
2023/08/04 03:22:32;;;;;;;;;;;19.40;72.80;;;;;;5112043;28;19931;-65
2023/08/04 03:24:58;;;;;;;;;;;19.40;72.80;;;;;;5113647;28;19920;-73
2023/08/04 03:27:23;;;;;;;;;;;19.40;72.80;;;;;;5113465;28;19919;-67
2023/08/04 03:29:49;;;;;;;;;;;19.40;72.90;;;;;;5113482;28;20006;-66
2023/08/04 03:32:14;;;;;;;;;;;19.40;72.90;;;;;;5113598;28;19948;-73
2023/08/04 03:34:40;;;;;;;;;;;19.40;72.90;;;;;;5112172;28;19968;-67
2023/08/04 03:37:05;;;;;;;;;;;19.40;72.90;;;;;;5112355;28;19972;-67
2023/08/04 03:39:31;;;;;;;;;;;19.40;72.90;;;;;;5112420;28;20271;-65
2023/08/04 03:41:56;;;;;;;;;;;19.40;72.90;;;;;;5112338;28;19954;-65
2023/08/04 03:44:22;;;;;;;;;;;19.40;72.90;;;;;;5112200;28;19923;-66
2023/08/04 03:46:47;;;;;;;;;;;19.40;72.90;;;;;;5111855;28;19926;-65
2023/08/04 03:49:12;;;;;;;;;;;19.40;72.90;;;;;;5113178;28;19923;-65
2023/08/04 03:51:38;;;;;;;;;;;19.40;72.90;;;;;;5111670;28;19920;-68
2023/08/04 03:54:05;;;;;;;;;;;19.40;72.90;;;;;;5112091;28;19943;-66
2023/08/04 03:56:30;;;;;;;;;;;19.40;72.90;;;;;;5113244;28;19920;-65
2023/08/04 03:58:55;;;;;;;;;;;19.40;72.90;;;;;;5111718;28;19973;-65
2023/08/04 04:01:21;;;;;;;;;;;19.40;72.90;;;;;;5111529;28;19928;-66
2023/08/04 04:03:46;;;;;;;;;;;19.40;72.90;;;;;;5112067;28;19931;-65
2023/08/04 04:06:12;;;;;;;;;;;19.40;72.90;;;;;;5145815;27;19924;-65
2023/08/04 04:08:37;;;;;;;;;;;19.40;72.90;;;;;;5113007;28;19920;-65
2023/08/04 04:11:03;;;;;;;;;;;19.40;72.90;;;;;;5111145;28;19972;-65
2023/08/04 04:13:28;;;;;;;;;;;19.40;72.90;;;;;;5111744;28;20362;-65
2023/08/04 04:15:54;;;;;;;;;;;19.40;72.90;;;;;;5111282;28;19919;-65
2023/08/04 04:18:19;;;;;;;;;;;19.40;72.90;;;;;;5112617;28;19986;-66
2023/08/04 04:20:45;;;;;;;;;;;19.40;72.90;;;;;;5111494;28;20397;-65
2023/08/04 04:23:10;;;;;;;;;;;19.40;72.90;;;;;;5111910;28;19934;-66
2023/08/04 04:25:36;;;;;;;;;;;19.40;72.90;;;;;;5113141;28;20431;-65
2023/08/04 04:28:01;;;;;;;;;;;19.40;72.90;;;;;;5112787;28;20198;-65
2023/08/04 04:30:27;;;;;;;;;;;19.40;72.90;;;;;;5112619;28;20345;-65
2023/08/04 04:32:52;;;;;;;;;;;19.40;72.90;;;;;;5111799;28;20378;-65
2023/08/04 04:35:18;;;;;;;;;;;19.40;72.90;;;;;;5117054;28;20019;-65
2023/08/04 04:37:43;;;;;;;;;;;19.40;72.90;;;;;;5115775;28;19931;-65
2023/08/04 04:40:09;;;;;;;;;;;19.40;72.90;;;;;;5150144;27;19920;-65
2023/08/04 04:42:34;;;;;;;;;;;19.40;72.90;;;;;;5115466;28;19924;-65
2023/08/04 04:45:00;;;;;;;;;;;19.30;72.90;;;;;;5115586;28;20263;-66
2023/08/04 04:47:26;;;;;;;;;;;19.40;72.90;;;;;;5116730;28;20404;-65
2023/08/04 04:49:51;;;;;;;;;;;19.30;72.90;;;;;;5116772;28;20274;-71
2023/08/04 04:52:33;;;;;;;;;;;19.30;72.90;;;;;;5115687;28;20271;-65
2023/08/04 04:55:00;;;;;;;;;;;19.40;72.90;;;;;;5115374;28;19927;-65
2023/08/04 04:57:26;;;;;;;;;;;19.30;72.90;;;;;;5116471;28;19928;-66
2023/08/04 04:59:52;;;;;;;;;;;19.30;72.90;;;;;;5115523;28;20132;-65
2023/08/04 05:02:17;;;;;;;;;;;19.30;72.90;;;;;;5115598;28;20048;-65
2023/08/04 05:04:43;;;;;;;;;;;19.30;72.90;;;;;;5114899;28;20378;-65
2023/08/04 05:07:09;;;;;;;;;;;19.30;72.90;;;;;;5115404;28;19927;-66
2023/08/04 05:09:34;;;;;;;;;;;19.30;72.90;;;;;;5115106;28;19940;-65
2023/08/04 05:12:00;;;;;;;;;;;19.30;72.90;;;;;;5114947;28;19950;-65
2023/08/04 05:14:25;;;;;;;;;;;19.30;72.90;;;;;;5115227;28;19988;-65
2023/08/04 05:16:51;;;;;;;;;;;19.30;72.90;;;;;;5114928;28;20283;-65
2023/08/04 05:19:16;;;;;;;;;;;19.30;72.90;;;;;;5116039;28;19924;-65
2023/08/04 05:21:42;;;;;;;;;;;19.30;72.90;;;;;;5115115;28;19924;-65
2023/08/04 05:24:07;;;;;;;;;;;19.30;72.90;;;;;;5115072;28;20397;-65
2023/08/04 05:26:33;;;;;;;;;;;19.30;72.90;;;;;;5116456;28;19926;-65
2023/08/04 05:28:58;;;;;;;;;;;19.30;72.90;;;;;;5114895;28;20499;-66
2023/08/04 05:31:23;;;;;;;;;;;19.30;72.90;;;;;;5116363;28;19926;-65
2023/08/04 05:33:49;;;;;;;;;;;19.30;72.90;;;;;;5114566;28;19928;-65
2023/08/04 05:36:14;;;;;;;;;;;19.30;72.90;;;;;;5115825;28;19920;-65
2023/08/04 05:38:40;;;;;;;;;;;19.30;72.90;;;;;;5114406;28;19930;-65
2023/08/04 05:41:05;;;;;;;;;;;19.30;72.90;;;;;;5114759;28;20291;-65
2023/08/04 05:43:31;;;;;;;;;;;19.30;72.90;;;;;;5114493;28;19919;-65
2023/08/04 05:46:02;;;;;;;;;;;19.30;73.60;;;;;;5113928;28;19920;-65
2023/08/04 05:48:28;;;;;;;;;;;19.30;72.90;;;;;;5115538;28;19920;-65
2023/08/04 05:50:55;;;;;;;;;;;19.30;72.90;;;;;;5114278;28;20041;-65
2023/08/04 05:53:20;;;;;;;;;;;19.30;72.90;;;;;;5114177;28;19919;-66
2023/08/04 05:55:46;;;;;;;;;;;19.30;72.90;;;;;;5114477;28;19920;-65
2023/08/04 05:58:11;;;;;;;;;;;19.30;72.90;;;;;;5115267;28;20022;-65
2023/08/04 06:00:37;;;;;;;;;;;19.30;72.90;;;;;;5115403;28;20240;-66
2023/08/04 06:03:04;;;;;;;;;;;19.30;72.90;;;;;;5115234;28;19928;-66
2023/08/04 06:05:32;;;;;;;;;;;19.30;72.90;;;;;;5114133;28;19920;-65
2023/08/04 06:07:58;;;;;;;;;;;19.40;72.90;;;;;;5114174;28;19927;-66
2023/08/04 06:10:23;;;;;;;;;;;19.30;72.80;;;;;;5113785;28;19920;-65
2023/08/04 06:12:49;;;;;;;;;;;19.30;72.80;;;;;;5148462;27;19942;-65
2023/08/04 06:15:15;;;;;;;;;;;19.40;72.90;;;;;;5113740;28;19919;-65
2023/08/04 06:17:40;;;;;;;;;;;19.30;72.80;;;;;;5147937;27;19931;-66
2023/08/04 06:20:07;;;;;;;;;;;19.30;72.80;;;;;;5115119;28;19927;-65
2023/08/04 06:22:32;;;;;;;;;;;19.40;72.80;;;;;;5113783;28;19930;-65
2023/08/04 06:24:58;;;;;;;;;;;19.40;72.80;;;;;;5113806;28;20293;-65
2023/08/04 06:27:23;;;;;;;;;;;19.40;72.80;;;;;;5148020;27;19919;-66
2023/08/04 06:29:49;;;;;;;;;;;19.40;72.70;;;;;;5114673;28;19927;-65
2023/08/04 06:32:14;;;;;;;;;;;19.40;72.80;;;;;;5130549;27;19954;-66
2023/08/04 06:34:40;;;;;;;;;;;19.40;72.80;;;;;;5113624;28;20331;-65
2023/08/04 06:37:05;;;;;;;;;;;19.40;72.70;;;;;;5114629;28;19927;-65
2023/08/04 06:39:31;;;;;;;;;;;19.40;72.70;;;;;;5147870;27;19919;-65
2023/08/04 06:41:56;;;;;;;;;;;19.40;72.70;;;;;;5147597;27;20437;-65
2023/08/04 06:44:22;;;;;;;;;;;19.40;72.70;;;;;;5113163;28;19965;-65
2023/08/04 06:46:47;;;;;;;;;;;19.40;72.70;;;;;;5113046;28;19984;-65
2023/08/04 06:49:13;;;;;;;;;;;19.40;72.80;;;;;;5114438;28;20321;-65
2023/08/04 06:51:38;;;;;;;;;;;19.40;72.70;;;;;;5147770;27;19919;-66
2023/08/04 06:54:04;;;;;;;;;;;19.40;72.70;;;;;;5113124;28;20366;-66
2023/08/04 06:56:29;;;;;;;;;;;19.40;72.70;;;;;;5113918;28;19920;-65
2023/08/04 06:58:55;;;;;;;;;;;19.40;72.70;;;;;;5113511;28;19924;-65
2023/08/04 07:01:20;;;;;;;;;;;19.40;72.60;;;;;;5113976;28;19919;-65
2023/08/04 07:03:47;;;;;;;;;;;19.40;72.60;;;;;;5113085;28;19923;-65
2023/08/04 07:06:13;;;;;;;;;;;19.40;72.70;;;;;;5112688;28;19924;-66
2023/08/04 07:08:39;;;;;;;;;;;19.40;72.60;;;;;;5114246;28;20014;-66
2023/08/04 07:11:11;;;;;;;;;;;19.40;72.60;;;;;;5112864;28;19955;-66
2023/08/04 07:13:37;;;;;;;;;;;19.40;72.60;;;;;;5112679;28;19963;-65
2023/08/04 07:16:02;;;;;;;;;;;19.40;72.60;;;;;;5112507;28;19967;-65
2023/08/04 07:18:28;;;;;;;;;;;19.40;72.60;;;;;;5112196;28;19924;-65
2023/08/04 07:21:02;;;;;;;;;;;19.40;72.60;;;;;;5112407;28;19964;-65
2023/08/04 07:23:28;;;;;;;;;;;19.40;72.60;;;;;;5112798;28;20267;-66
2023/08/04 07:25:55;;;;;;;;;;;19.40;72.60;;;;;;5112714;28;19934;-66
2023/08/04 07:28:20;;;;;;;;;;;19.30;72.50;;;;;;5112688;28;19920;-65
2023/08/04 07:30:46;;;;;;;;;;;19.40;72.60;;;;;;5112392;28;19927;-65
2023/08/04 07:33:11;;;;;;;;;;;19.40;72.60;;;;;;5112413;28;20326;-66
2023/08/04 07:35:37;;;;;;;;;;;19.40;72.60;;;;;;5112576;28;19920;-66
2023/08/04 07:38:02;;;;;;;;;;;19.40;72.60;;;;;;5112286;28;19931;-65
2023/08/04 07:40:28;;;;;;;;;;;19.40;72.60;;;;;;5112241;28;19920;-65
2023/08/04 07:42:53;;;;;;;;;;;19.40;72.60;;;;;;5112282;28;19926;-65
2023/08/04 07:45:19;;;;;;;;;;;19.40;72.60;;;;;;5112170;28;20534;-66
2023/08/04 07:47:44;;;;;;;;;;;19.30;72.50;;;;;;5112230;28;20011;-65
2023/08/04 07:50:10;;;;;;;;;;;19.40;72.50;;;;;;5113569;28;19920;-65
2023/08/04 07:52:35;;;;;;;;;;;19.40;72.60;;;;;;5113178;28;19919;-65
2023/08/04 07:55:04;;;;;;;;;;;19.40;72.60;;;;;;5112243;28;19919;-65
2023/08/04 07:57:29;;;;;;;;;;;19.40;72.60;;;;;;5111847;28;19981;-65
2023/08/04 07:59:55;;;;;;;;;;;19.40;72.50;;;;;;5112078;28;19920;-66
2023/08/04 08:02:20;;;;;;;;;;;19.40;72.50;;;;;;5111744;28;19920;-65
2023/08/04 08:04:46;;;;;;;;;;;19.40;72.50;;;;;;5146300;27;19963;-65
2023/08/04 08:07:11;;;;;;;;;;;19.40;72.40;;;;;;5112055;28;19919;-65
2023/08/04 08:09:37;;;;;;;;;;;19.40;72.40;;;;;;5144923;27;19920;-66
2023/08/04 08:12:02;;;;;;;;;;;19.40;72.40;;;;;;5113145;28;20010;-66
2023/08/04 08:14:28;;;;;;;;;;;19.40;72.40;;;;;;5111852;28;19920;-65
2023/08/04 08:16:54;;;;;;;;;;;19.40;72.40;;;;;;5111425;28;20401;-66
2023/08/04 08:19:21;;;;;;;;;;;19.40;72.30;;;;;;5110831;28;21279;-66
2023/08/04 08:21:47;;;;;;;;;;;19.40;72.30;;;;;;5113314;28;19919;-65
2023/08/04 08:24:12;;;;;;;;;;;19.40;72.30;;;;;;5111856;28;20293;-66
2023/08/04 08:26:38;;;;;;;;;;;19.40;72.30;;;;;;5111367;28;19919;-65
2023/08/04 08:29:04;;;;;;;;;;;19.40;72.30;;;;;;5111869;28;20014;-65
2023/08/04 08:31:30;;;;;;;;;;;19.40;72.30;;;;;;5112885;28;20019;-66
2023/08/04 08:33:55;;;;;;;;;;;19.40;73.10;;;;;;5111415;28;20425;-65
2023/08/04 08:36:21;;;;;;;;;;;19.40;72.30;;;;;;5111727;28;20002;-65
2023/08/04 08:38:46;;;;;;;;;;;19.40;72.30;;;;;;5112566;28;20264;-66
2023/08/04 08:41:13;;;;;;;;;;;19.40;72.20;;;;;;5111670;28;19923;-66
2023/08/04 08:43:39;;;;;;;;;;;19.40;72.20;;;;;;5111666;28;19935;-66
2023/08/04 08:46:05;;;;;;;;;;;19.40;72.20;;;;;;5112718;28;19965;-66
2023/08/04 08:48:32;;;;;;;;;;;19.40;72.20;;;;;;5111448;28;19923;-66
2023/08/04 08:51:00;;;;;;;;;;;19.40;72.20;;;;;;5112504;28;20375;-65
2023/08/04 08:53:27;;;;;;;;;;;19.40;72.20;;;;;;5111856;28;20101;-66
2023/08/04 08:55:53;;;;;;;;;;;19.40;72.20;;;;;;5111588;28;19924;-66
2023/08/04 08:58:19;;;;;;;;;;;19.40;72.20;;;;;;5111369;28;20382;-66
2023/08/04 09:00:44;;;;;;;;;;;19.40;72.20;;;;;;5111091;28;19920;-66
2023/08/04 09:03:10;;;;;;;;;;;19.40;72.20;;;;;;5111290;28;19919;-65
2023/08/04 09:05:35;;;;;;;;;;;19.50;72.20;;;;;;5112307;28;19920;-65
2023/08/04 09:08:02;;;;;;;;;;;19.40;72.20;;;;;;5111150;28;19981;-65
2023/08/04 09:10:28;;;;;;;;;;;19.40;72.10;;;;;;5111080;28;19919;-66
2023/08/04 09:12:54;;;;;;;;;;;19.40;72.10;;;;;;5111485;28;20294;-66
2023/08/04 09:15:31;;;;;;;;;;;19.50;72.10;;;;;;5112423;28;19927;-66
2023/08/04 09:17:56;;;;;;;;;;;19.40;72.10;;;;;;5110767;28;19924;-66
2023/08/04 09:20:29;;;;;;;;;;;19.50;72.10;;;;;;5112593;28;20285;-66
2023/08/04 09:22:54;;;;;;;;;;;19.50;72.10;;;;;;5114860;28;19926;-66
2023/08/04 09:25:20;;;;;;;;;;;19.50;72.10;;;;;;5114807;28;20314;-65
2023/08/04 09:27:49;;;;;;;;;;;19.50;72.10;;;;;;5114742;28;20382;-65
2023/08/04 09:30:16;;;;;;;;;;;19.50;72.10;;;;;;5114923;28;19919;-66
2023/08/04 09:35:22;;;;;;;;;;;19.50;72.10;;;;;;5110310;27;20282;-66
2023/08/04 09:37:53;;;;;;;;;;;19.40;72.00;;;;;;5109035;28;19920;-66
2023/08/04 09:40:19;;;;;;;;;;;19.40;72.10;;;;;;5109275;28;20275;-66
2023/08/04 09:42:45;;;;;;;;;;;19.40;72.10;;;;;;5108805;28;19931;-65
2023/08/04 09:45:12;;;;;;;;;;;19.40;72.10;;;;;;5109236;28;20355;-65
2023/08/04 09:47:37;;;;;;;;;;;19.40;72.10;;;;;;5109026;28;19989;-65
2023/08/04 09:50:08;;;;;;;;;;;19.40;72.10;;;;;;5109128;28;20370;-66
2023/08/04 09:52:34;;;;;;;;;;;19.50;72.10;;;;;;5110129;28;19945;-65
2023/08/04 09:55:00;;;;;;;;;;;19.50;72.10;;;;;;5109950;28;20144;-65
2023/08/04 09:57:25;;;;;;;;;;;19.50;72.10;;;;;;5108639;28;20127;-65
2023/08/04 09:59:51;;;;;;;;;;;19.50;72.10;;;;;;5109924;28;20578;-66
2023/08/04 10:02:18;;;;;;;;;;;19.50;72.10;;;;;;5109748;28;19941;-66
2023/08/04 10:04:46;;;;;;;;;;;19.50;72.00;;;;;;5108841;28;19920;-66
2023/08/04 10:07:12;;;;;;;;;;;19.50;72.10;;;;;;5108399;28;20015;-65
2023/08/04 10:09:38;;;;;;;;;;;19.50;72.10;;;;;;5108414;28;20075;-65
2023/08/04 10:12:04;;;;;;;;;;;19.50;72.10;;;;;;5109582;28;19927;-65
2023/08/04 10:14:30;;;;;;;;;;;19.50;72.10;;;;;;5109582;28;19944;-65
2023/08/04 10:16:57;;;;;;;;;;;19.50;72.00;;;;;;5108131;28;19963;-66
2023/08/04 10:19:23;;;;;;;;;;;19.50;72.00;;;;;;5109559;28;19924;-66
2023/08/04 10:21:49;;;;;;;;;;;19.50;72.00;;;;;;5108091;28;19927;-65
2023/08/04 10:24:19;;;;;;;;;;;19.50;72.00;;;;;;5108481;28;19957;-66
2023/08/04 10:26:46;;;;;;;;;;;19.50;72.00;;;;;;5108054;28;19973;-65
2023/08/04 10:29:12;;;;;;;;;;;19.50;72.00;;;;;;5107955;28;19920;-65
2023/08/04 10:34:35;;;;;;;;;;;19.50;71.90;;;;;;5090076;28;19913;-70
2023/08/04 10:39:46;;;;;;;;;;;19.60;72.00;;;;;;5110819;27;20313;-65
2023/08/04 10:45:03;;;;;;;;;;;19.50;72.00;;;;;;5110365;27;19912;-66
2023/08/04 10:47:31;;;;;;;;;;;19.50;72.00;;;;;;5109329;28;19989;-66
2023/08/04 10:49:57;;;;;;;;;;;19.50;71.90;;;;;;5109252;28;20325;-66
2023/08/04 10:52:23;;;;;;;;;;;19.50;72.00;;;;;;5109293;28;19934;-66
2023/08/04 10:54:49;;;;;;;;;;;19.50;72.00;;;;;;5110052;28;19966;-65
2023/08/04 10:57:19;;;;;;;;;;;19.50;72.00;;;;;;5109181;28;19920;-66
2023/08/04 10:59:44;;;;;;;;;;;19.50;72.00;;;;;;5091732;28;19926;-66
2023/08/04 11:02:10;;;;;;;;;;;19.50;72.00;;;;;;5108713;28;19985;-65
2023/08/04 11:04:36;;;;;;;;;;;19.50;72.00;;;;;;5109881;28;19924;-66
2023/08/04 11:07:03;;;;;;;;;;;19.50;72.00;;;;;;5108684;28;19920;-65
2023/08/04 11:09:28;;;;;;;;;;;19.60;72.00;;;;;;5108806;28;20260;-66
2023/08/04 11:11:54;;;;;;;;;;;19.50;72.00;;;;;;5108879;28;19927;-65
2023/08/04 11:14:19;;;;;;;;;;;19.50;72.00;;;;;;5109929;28;19920;-66
2023/08/04 11:16:46;;;;;;;;;;;19.50;72.10;;;;;;5108741;28;19920;-66
2023/08/04 11:19:11;;;;;;;;;;;19.50;72.00;;;;;;5108367;28;20019;-66
2023/08/04 11:21:36;;;;;;;;;;;19.50;72.00;;;;;;5108644;28;19967;-65
2023/08/04 11:24:02;;;;;;;;;;;19.50;72.00;;;;;;5108115;28;19931;-66
2023/08/04 11:26:29;;;;;;;;;;;19.50;72.00;;;;;;5108566;28;19927;-66
2023/08/04 11:28:55;;;;;;;;;;;19.60;72.10;;;;;;5108486;28;20287;-71
2023/08/04 11:31:21;;;;;;;;;;;19.50;72.00;;;;;;5108191;28;19923;-67
2023/08/04 11:33:46;;;;;;;;;;;19.50;72.00;;;;;;5108210;28;19920;-65
2023/08/04 11:36:12;;;;;;;;;;;19.50;72.10;;;;;;5109733;28;20321;-65
2023/08/04 11:38:38;;;;;;;;;;;19.50;72.10;;;;;;5109308;28;19978;-66
2023/08/04 11:41:07;;;;;;;;;;;19.60;72.10;;;;;;5109140;28;19945;-66
2023/08/04 11:43:32;;;;;;;;;;;19.60;72.10;;;;;;5107802;28;19928;-65
2023/08/04 11:46:00;;;;;;;;;;;19.60;72.10;;;;;;5107822;28;19946;-66
2023/08/04 11:48:26;;;;;;;;;;;19.60;72.10;;;;;;5109142;28;20340;-72
2023/08/04 11:50:53;;;;;;;;;;;19.60;72.10;;;;;;5107755;28;19969;-65
2023/08/04 11:53:18;;;;;;;;;;;19.60;72.10;;;;;;5108081;28;20282;-66
2023/08/04 11:56:00;;;;;;;;;;;19.60;72.10;;;;;;5097837;28;19930;-65
2023/08/04 11:58:29;;;;;;;;;;;19.60;72.20;;;;;;5094120;28;19920;-66
2023/08/04 12:00:54;;;;;;;;;;;19.60;72.20;;;;;;5093967;28;19924;-66
2023/08/04 12:03:20;;;;;;;;;;;19.60;72.30;;;;;;5095198;28;19931;-66
2023/08/04 12:05:46;;;;;;;;;;;19.60;72.20;;;;;;5095141;28;19927;-66
2023/08/04 12:08:12;;;;;;;;;;;19.60;72.20;;;;;;5094203;28;19920;-70
2023/08/04 12:10:38;;;;;;;;;;;19.60;72.30;;;;;;5093812;28;20018;-65
2023/08/04 12:13:04;;;;;;;;;;;19.60;72.30;;;;;;5093881;28;20366;-66
2023/08/04 12:15:29;;;;;;;;;;;19.60;72.30;;;;;;5094063;28;20329;-66
2023/08/04 12:17:54;;;;;;;;;;;19.60;72.20;;;;;;5093210;28;19920;-66
2023/08/04 12:20:20;;;;;;;;;;;19.60;72.30;;;;;;5093838;28;19924;-66
2023/08/04 12:22:46;;;;;;;;;;;19.60;72.30;;;;;;5093595;28;20015;-65
2023/08/04 12:25:12;;;;;;;;;;;19.60;72.30;;;;;;5093828;28;19966;-66
2023/08/04 12:27:38;;;;;;;;;;;19.60;72.40;;;;;;5094962;28;19920;-66
2023/08/04 12:30:03;;;;;;;;;;;19.60;72.40;;;;;;5093964;28;20436;-65
2023/08/04 12:32:29;;;;;;;;;;;19.60;72.30;;;;;;5093413;28;19927;-65
2023/08/04 12:34:56;;;;;;;;;;;19.60;72.30;;;;;;5093664;28;19920;-66
2023/08/04 12:37:21;;;;;;;;;;;19.60;72.40;;;;;;5093292;28;19920;-65
2023/08/04 12:39:47;;;;;;;;;;;19.60;72.30;;;;;;5093517;28;19920;-66
2023/08/04 12:42:12;;;;;;;;;;;19.60;72.20;;;;;;5093170;28;19924;-66
2023/08/04 12:44:38;;;;;;;;;;;19.60;72.30;;;;;;5092882;28;19927;-66
2023/08/04 12:47:04;;;;;;;;;;;19.60;72.30;;;;;;5094404;28;19924;-66
2023/08/04 12:49:29;;;;;;;;;;;19.60;72.10;;;;;;5093457;28;20019;-66
2023/08/04 12:51:55;;;;;;;;;;;19.60;72.90;;;;;;5093040;28;19920;-66
2023/08/04 12:54:22;;;;;;;;;;;19.60;72.10;;;;;;5092959;28;19920;-66
2023/08/04 12:56:49;;;;;;;;;;;19.60;72.10;;;;;;5093707;28;19926;-66
2023/08/04 12:59:15;;;;;;;;;;;19.60;72.10;;;;;;5093247;28;19924;-66
2023/08/04 13:01:40;;;;;;;;;;;19.60;72.10;;;;;;5094149;28;19927;-71
2023/08/04 13:04:06;;;;;;;;;;;19.60;72.10;;;;;;5094126;28;19924;-66
2023/08/04 13:06:32;;;;;;;;;;;19.60;72.00;;;;;;5091832;28;20387;-65
2023/08/04 13:08:57;;;;;;;;;;;19.60;72.10;;;;;;5093021;28;19920;-65
2023/08/04 13:11:23;;;;;;;;;;;19.60;72.10;;;;;;5092645;28;19973;-66
2023/08/04 13:13:48;;;;;;;;;;;19.60;72.10;;;;;;5093838;28;19926;-66
2023/08/04 13:16:14;;;;;;;;;;;19.60;72.10;;;;;;5092635;28;20386;-66
2023/08/04 13:18:39;;;;;;;;;;;19.60;72.20;;;;;;5092520;28;19920;-66
2023/08/04 13:21:05;;;;;;;;;;;19.70;72.30;;;;;;5092479;28;19920;-66
2023/08/04 13:23:32;;;;;;;;;;;19.60;72.20;;;;;;5092384;28;19974;-66
2023/08/04 13:26:05;;;;;;;;;;;19.60;72.10;;;;;;5092715;28;19927;-71
2023/08/04 13:28:31;;;;;;;;;;;19.60;72.10;;;;;;5092607;28;20287;-66
2023/08/04 13:30:59;;;;;;;;;;;19.70;72.20;;;;;;5093928;28;20338;-65
2023/08/04 13:33:25;;;;;;;;;;;19.70;72.20;;;;;;5092196;28;20014;-67
2023/08/04 13:35:52;;;;;;;;;;;19.60;72.10;;;;;;5092283;28;19920;-66
2023/08/04 13:38:18;;;;;;;;;;;19.70;72.10;;;;;;5092179;28;19920;-66
2023/08/04 13:40:43;;;;;;;;;;;19.70;72.10;;;;;;5093340;28;20343;-65
2023/08/04 13:43:08;;;;;;;;;;;19.70;72.10;;;;;;5091972;28;20170;-65
2023/08/04 13:45:34;;;;;;;;;;;19.70;72.10;;;;;;5093253;28;19930;-66
2023/08/04 13:48:00;;;;;;;;;;;19.70;72.10;;;;;;5092030;28;20015;-66
2023/08/04 13:50:25;;;;;;;;;;;19.70;72.10;;;;;;5092273;28;20234;-70
2023/08/04 13:52:51;;;;;;;;;;;19.60;72.00;;;;;;5092221;28;19927;-70
2023/08/04 13:55:16;;;;;;;;;;;19.70;72.10;;;;;;5092055;28;19969;-66
2023/08/04 13:57:42;;;;;;;;;;;19.70;72.10;;;;;;5093358;28;19943;-71
2023/08/04 14:00:08;;;;;;;;;;;19.70;72.10;;;;;;5091741;28;19926;-65
2023/08/04 14:02:34;;;;;;;;;;;19.70;72.10;;;;;;5091694;28;19974;-66
2023/08/04 14:05:00;;;;;;;;;;;19.70;72.10;;;;;;5093042;28;20394;-66
2023/08/04 14:07:25;;;;;;;;;;;19.70;72.10;;;;;;5091973;28;19964;-65
2023/08/04 14:09:51;;;;;;;;;;;19.70;72.10;;;;;;5091588;28;19962;-66
2023/08/04 14:12:16;;;;;;;;;;;19.70;72.10;;;;;;5092868;28;20022;-66
2023/08/04 14:14:42;;;;;;;;;;;19.70;72.00;;;;;;5091843;28;19920;-66
2023/08/04 14:17:07;;;;;;;;;;;19.70;72.00;;;;;;5092856;28;19983;-66
2023/08/04 14:19:33;;;;;;;;;;;19.70;72.10;;;;;;5092696;28;20374;-66